Time;durP1;ratioP1;P1;durP2;ratioP2;P2;SDS_P1;SDS_P2;PMS_P1;PMS_P2;Temp;Humidity;BMP_temperature;BMP_pressure;BME280_temperature;BME280_humidity;BME280_pressure;Samples;Min_cycle;Max_cycle;Signal;HPM_P1;HPM_P2
2022/05/04 00:01:16;;;;;;;5.93;4.00;;;;;;;;;;5075170;28;20028;-83
2022/05/04 00:03:42;;;;;;;6.25;3.78;;;;;;;;;;5083456;28;20127;-83
2022/05/04 00:06:08;;;;;;;5.97;4.03;;;;;;;;;;5096414;28;20437;-82
2022/05/04 00:08:33;;;;;;;6.15;3.67;;;;;;;;;;5061719;28;20032;-82
2022/05/04 00:10:59;;;;;;;5.63;3.63;;;;;;;;;;5061719;28;20437;-82
2022/05/04 00:13:25;;;;;;;5.93;3.42;;;;;;;;;;5078358;28;20024;-82
2022/05/04 00:15:50;;;;;;;4.65;3.45;;;;;;;;;;5077904;28;20055;-82
2022/05/04 00:18:16;;;;;;;6.05;3.92;;;;;;;;;;5078219;28;20074;-82
2022/05/04 00:20:41;;;;;;;5.18;3.33;;;;;;;;;;5078122;28;20078;-81
2022/05/04 00:23:07;;;;;;;10.25;4.03;;;;;;;;;;5061738;28;20035;-83
2022/05/04 00:25:32;;;;;;;6.78;3.88;;;;;;;;;;5062503;28;20035;-83
2022/05/04 00:28:00;;;;;;;6.28;3.58;;;;;;;;;;5078040;28;20028;-83
2022/05/04 00:30:26;;;;;;;5.95;4.13;;;;;;;;;;5095675;28;20510;-82
2022/05/04 00:32:51;;;;;;;8.52;4.00;;;;;;;;;;5077988;28;20028;-82
2022/05/04 00:35:17;;;;;;;5.43;3.92;;;;;;;;;;5077791;28;20092;-82
2022/05/04 00:37:42;;;;;;;6.40;4.07;;;;;;;;;;5096071;28;20352;-82
2022/05/04 00:40:10;;;;;;;6.40;3.88;;;;;;;;;;5044732;28;20036;-82
2022/05/04 00:42:36;;;;;;;6.82;4.15;;;;;;;;;;5078214;28;20024;-82
2022/05/04 00:45:01;;;;;;;6.20;4.05;;;;;;;;;;5062096;28;20034;-82
2022/05/04 00:47:27;;;;;;;5.57;3.85;;;;;;;;;;5077645;28;20085;-82
2022/05/04 00:49:52;;;;;;;5.65;4.03;;;;;;;;;;5077501;28;20039;-82
2022/05/04 00:52:18;;;;;;;5.43;3.85;;;;;;;;;;5077501;28;20035;-82
2022/05/04 00:54:46;;;;;;;5.68;3.80;;;;;;;;;;5061160;28;20108;-82
2022/05/04 00:57:13;;;;;;;4.97;3.45;;;;;;;;;;5077821;28;20453;-82
2022/05/04 00:59:38;;;;;;;6.72;4.38;;;;;;;;;;5060688;28;20028;-82
2022/05/04 01:02:04;;;;;;;6.13;3.65;;;;;;;;;;5077564;28;20115;-82
2022/05/04 01:04:29;;;;;;;5.32;3.72;;;;;;;;;;5079935;28;20449;-82
2022/05/04 01:06:55;;;;;;;5.57;4.13;;;;;;;;;;5095400;28;20358;-82
2022/05/04 01:09:21;;;;;;;6.32;3.65;;;;;;;;;;5077110;28;20032;-82
2022/05/04 01:11:47;;;;;;;5.63;3.65;;;;;;;;;;5095627;28;20127;-82
2022/05/04 01:14:14;;;;;;;6.00;4.10;;;;;;;;;;5094003;28;20479;-82
2022/05/04 01:16:41;;;;;;;6.72;3.85;;;;;;;;;;5077067;28;20031;-82
2022/05/04 01:19:07;;;;;;;6.75;4.25;;;;;;;;;;5095045;28;20027;-82
2022/05/04 01:21:33;;;;;;;6.35;3.90;;;;;;;;;;5060442;28;20144;-82
2022/05/04 01:23:58;;;;;;;9.57;4.50;;;;;;;;;;5096262;28;20028;-82
2022/05/04 01:26:24;;;;;;;9.15;4.10;;;;;;;;;;5100783;28;20039;-82
2022/05/04 01:28:49;;;;;;;9.10;4.15;;;;;;;;;;5076719;28;20358;-82
2022/05/04 01:31:15;;;;;;;7.35;4.55;;;;;;;;;;5095355;28;20083;-82
2022/05/04 01:33:40;;;;;;;7.32;4.45;;;;;;;;;;5076698;28;20032;-82
2022/05/04 01:36:06;;;;;;;9.68;4.57;;;;;;;;;;5076605;28;20036;-82
2022/05/04 01:38:32;;;;;;;8.65;4.35;;;;;;;;;;5076649;28;20028;-82
2022/05/04 01:40:57;;;;;;;10.13;4.97;;;;;;;;;;5076730;28;20028;-82
2022/05/04 01:43:23;;;;;;;9.05;5.13;;;;;;;;;;5060245;28;20345;-82
2022/05/04 01:45:48;;;;;;;9.93;4.85;;;;;;;;;;5096912;28;20032;-81
2022/05/04 01:48:14;;;;;;;8.07;4.85;;;;;;;;;;5094764;28;20460;-82
2022/05/04 01:50:39;;;;;;;9.98;5.40;;;;;;;;;;5076498;28;20480;-82
2022/05/04 01:53:06;;;;;;;7.70;4.82;;;;;;;;;;5094453;28;20066;-82
2022/05/04 01:55:32;;;;;;;9.48;5.28;;;;;;;;;;5076702;28;20024;-83
2022/05/04 01:57:58;;;;;;;8.88;4.53;;;;;;;;;;5076568;28;20027;-82
2022/05/04 02:00:23;;;;;;;12.00;5.30;;;;;;;;;;5094889;28;20024;-82
2022/05/04 02:02:49;;;;;;;7.32;4.88;;;;;;;;;;5095142;28;20114;-82
2022/05/04 02:05:14;;;;;;;9.95;4.47;;;;;;;;;;5068696;28;20020;-82
2022/05/04 02:07:40;;;;;;;7.57;4.40;;;;;;;;;;5094607;28;20036;-82
2022/05/04 02:10:06;;;;;;;7.25;4.60;;;;;;;;;;5076076;28;20032;-82
2022/05/04 02:12:31;;;;;;;8.55;4.45;;;;;;;;;;5076410;28;20032;-82
2022/05/04 02:14:57;;;;;;;9.60;4.38;;;;;;;;;;5076499;28;20446;-82
2022/05/04 02:17:22;;;;;;;6.97;4.47;;;;;;;;;;5076199;28;20484;-83
2022/05/04 02:19:48;;;;;;;6.90;4.63;;;;;;;;;;5076416;28;20468;-84
2022/05/04 02:22:13;;;;;;;9.57;4.70;;;;;;;;;;5076152;28;20147;-83
2022/05/04 02:24:39;;;;;;;7.60;4.45;;;;;;;;;;5076377;28;20035;-81
2022/05/04 02:27:04;;;;;;;9.43;4.63;;;;;;;;;;5063443;28;20094;-82
2022/05/04 02:29:30;;;;;;;9.20;4.78;;;;;;;;;;5098881;28;20036;-82
2022/05/04 02:31:58;;;;;;;7.13;4.25;;;;;;;;;;5098533;28;20023;-82
2022/05/04 02:34:24;;;;;;;7.43;3.90;;;;;;;;;;5098213;28;20093;-82
2022/05/04 02:39:33;;;;;;;11.57;4.28;;;;;;;;;;5083021;28;20077;-82
2022/05/04 02:41:59;;;;;;;5.38;3.72;;;;;;;;;;5064766;28;20024;-82
2022/05/04 02:44:24;;;;;;;12.32;4.65;;;;;;;;;;5083106;28;20464;-82
2022/05/04 02:46:50;;;;;;;6.55;4.25;;;;;;;;;;5085468;28;20028;-81
2022/05/04 02:49:16;;;;;;;10.07;4.53;;;;;;;;;;5082831;28;20337;-81
2022/05/04 02:51:41;;;;;;;7.07;3.88;;;;;;;;;;5080677;28;20024;-82
2022/05/04 02:54:07;;;;;;;8.30;4.35;;;;;;;;;;5080224;28;20020;-82
2022/05/04 02:56:32;;;;;;;6.35;4.07;;;;;;;;;;5080005;28;20027;-83
2022/05/04 02:58:58;;;;;;;6.05;3.85;;;;;;;;;;5063203;28;20360;-83
2022/05/04 03:04:08;;;;;;;9.20;3.58;;;;;;;;;;5097577;28;20044;-83
2022/05/04 03:06:37;;;;;;;5.30;4.00;;;;;;;;;;5105209;28;20032;-82
2022/05/04 03:09:03;;;;;;;5.65;3.65;;;;;;;;;;5096982;28;20047;-84
2022/05/04 03:14:12;;;;;;;6.75;4.03;;;;;;;;;;5082139;28;20160;-83
2022/05/04 03:16:39;;;;;;;6.22;4.13;;;;;;;;;;5079300;28;20722;-82
2022/05/04 03:19:05;;;;;;;10.70;4.15;;;;;;;;;;5063054;28;20031;-82
2022/05/04 03:21:30;;;;;;;6.47;3.97;;;;;;;;;;5079824;28;20028;-82
2022/05/04 03:23:56;;;;;;;6.80;4.50;;;;;;;;;;5097257;28;20437;-83
2022/05/04 03:26:21;;;;;;;6.47;4.13;;;;;;;;;;5066392;28;20031;-82
2022/05/04 03:28:47;;;;;;;5.43;3.92;;;;;;;;;;5098102;28;20038;-83
2022/05/04 03:31:12;;;;;;;6.65;3.80;;;;;;;;;;5097174;28;20055;-82
2022/05/04 03:33:38;;;;;;;16.98;4.45;;;;;;;;;;5078984;28;20031;-82
2022/05/04 03:36:04;;;;;;;5.50;3.92;;;;;;;;;;5097231;28;20027;-82
2022/05/04 03:38:29;;;;;;;8.48;3.78;;;;;;;;;;5077752;28;20028;-82
2022/05/04 03:40:55;;;;;;;6.40;4.15;;;;;;;;;;5097124;28;20115;-82
2022/05/04 03:43:20;;;;;;;5.65;3.80;;;;;;;;;;5097021;28;20392;-82
2022/05/04 03:45:46;;;;;;;7.70;3.75;;;;;;;;;;5062600;28;20444;-82
2022/05/04 03:48:11;;;;;;;6.07;4.10;;;;;;;;;;5089194;28;20047;-82
2022/05/04 03:50:37;;;;;;;5.93;4.03;;;;;;;;;;5078815;28;20558;-82
2022/05/04 03:53:02;;;;;;;5.28;3.95;;;;;;;;;;5078404;28;20039;-82
2022/05/04 03:55:28;;;;;;;6.18;3.80;;;;;;;;;;5096541;28;20130;-83
2022/05/04 03:57:53;;;;;;;11.90;3.97;;;;;;;;;;5078776;28;20032;-82
2022/05/04 04:00:19;;;;;;;8.93;4.47;;;;;;;;;;5078757;28;20036;-82
2022/05/04 04:02:44;;;;;;;11.73;4.10;;;;;;;;;;5096420;28;20035;-78
2022/05/04 04:05:10;;;;;;;9.35;4.53;;;;;;;;;;5061541;28;20454;-77
2022/05/04 04:07:35;;;;;;;6.70;4.03;;;;;;;;;;5099539;28;20035;-78
2022/05/04 04:10:01;;;;;;;12.10;3.63;;;;;;;;;;5096568;28;20107;-79
2022/05/04 04:12:26;;;;;;;4.93;3.50;;;;;;;;;;5096367;28;20024;-78
2022/05/04 04:14:52;;;;;;;6.07;3.78;;;;;;;;;;5078079;28;20040;-79
2022/05/04 04:17:17;;;;;;;7.97;4.13;;;;;;;;;;5096280;28;20724;-78
2022/05/04 04:19:43;;;;;;;5.05;3.35;;;;;;;;;;5096137;28;20031;-78
2022/05/04 04:22:08;;;;;;;8.23;3.60;;;;;;;;;;5095802;28;20028;-77
2022/05/04 04:24:34;;;;;;;7.13;3.70;;;;;;;;;;5096276;28;20072;-78
2022/05/04 04:26:59;;;;;;;7.57;3.80;;;;;;;;;;5097184;28;20060;-78
2022/05/04 04:29:25;;;;;;;6.07;3.90;;;;;;;;;;5098841;28;20560;-78
2022/05/04 04:31:50;;;;;;;12.25;3.67;;;;;;;;;;5077593;28;20470;-78
2022/05/04 04:34:16;;;;;;;11.73;4.07;;;;;;;;;;5095584;28;20032;-78
2022/05/04 04:36:43;;;;;;;10.93;4.03;;;;;;;;;;5095235;28;20032;-79
2022/05/04 04:39:08;;;;;;;6.65;3.83;;;;;;;;;;5044077;28;20020;-78
2022/05/04 04:41:34;;;;;;;13.90;4.47;;;;;;;;;;5096041;28;20058;-77
2022/05/04 04:43:59;;;;;;;7.22;3.60;;;;;;;;;;5077491;28;20113;-77
2022/05/04 04:46:25;;;;;;;8.70;3.17;;;;;;;;;;5060816;28;20028;-78
2022/05/04 04:48:51;;;;;;;5.90;3.53;;;;;;;;;;5078721;28;20032;-78
2022/05/04 04:51:16;;;;;;;5.53;3.47;;;;;;;;;;5074468;28;20113;-77
2022/05/04 04:53:42;;;;;;;8.70;3.20;;;;;;;;;;5073935;28;20100;-77
2022/05/04 04:56:07;;;;;;;7.45;3.30;;;;;;;;;;5056517;28;20760;-76
2022/05/04 04:58:33;;;;;;;8.60;3.30;;;;;;;;;;5084048;28;20085;-78
2022/05/04 05:00:59;;;;;;;11.75;3.30;;;;;;;;;;5070965;28;20028;-78
2022/05/04 05:03:24;;;;;;;5.72;3.47;;;;;;;;;;5072572;28;20024;-77
2022/05/04 05:05:52;;;;;;;10.05;3.15;;;;;;;;;;5087149;28;20037;-77
2022/05/04 05:08:18;;;;;;;6.85;3.45;;;;;;;;;;5072626;28;20032;-78
2022/05/04 05:10:43;;;;;;;9.05;3.78;;;;;;;;;;5071399;28;20032;-78
2022/05/04 05:13:09;;;;;;;7.18;3.88;;;;;;;;;;5070615;28;20737;-77
2022/05/04 05:18:20;;;;;;;10.98;4.60;;;;;;;;;;5089879;28;20155;-77
2022/05/04 05:20:46;;;;;;;10.48;3.92;;;;;;;;;;5087693;28;20024;-78
2022/05/04 05:23:12;;;;;;;10.20;3.50;;;;;;;;;;5084574;28;20663;-79
2022/05/04 05:25:38;;;;;;;5.47;3.35;;;;;;;;;;5087306;28;20039;-81
2022/05/04 05:28:05;;;;;;;5.38;3.28;;;;;;;;;;5087048;28;20044;-81
2022/05/04 05:30:30;;;;;;;6.35;3.67;;;;;;;;;;5070180;28;20040;-81
2022/05/04 05:32:56;;;;;;;7.00;3.65;;;;;;;;;;5088694;28;20047;-79
2022/05/04 05:35:22;;;;;;;9.77;4.15;;;;;;;;;;5091729;28;20070;-77
2022/05/04 05:37:47;;;;;;;6.47;3.33;;;;;;;;;;5090087;28;20039;-81
2022/05/04 05:40:13;;;;;;;7.30;2.88;;;;;;;;;;5090527;28;20072;-79
2022/05/04 05:42:39;;;;;;;5.40;3.10;;;;;;;;;;5088159;28;20588;-79
2022/05/04 05:45:06;;;;;;;9.25;2.97;;;;;;;;;;5092115;28;20149;-81
2022/05/04 05:47:31;;;;;;;7.75;3.05;;;;;;;;;;5070162;28;20063;-81
2022/05/04 05:49:58;;;;;;;10.43;2.97;;;;;;;;;;5068887;28;20122;-79
2022/05/04 05:52:24;;;;;;;4.05;3.08;;;;;;;;;;5089027;28;20042;-82
2022/05/04 05:54:51;;;;;;;5.93;3.63;;;;;;;;;;5064944;28;20044;-82
2022/05/04 05:57:17;;;;;;;6.03;4.13;;;;;;;;;;5069868;28;20393;-78
2022/05/04 05:59:42;;;;;;;7.13;4.18;;;;;;;;;;5086983;28;20033;-79
2022/05/04 06:02:08;;;;;;;7.28;4.15;;;;;;;;;;5074452;28;20053;-82
2022/05/04 06:04:33;;;;;;;7.75;5.65;;;;;;;;;;5088586;28;20170;-79
2022/05/04 06:06:59;;;;;;;11.75;5.72;;;;;;;;;;5088975;28;20373;-82
2022/05/04 06:09:24;;;;;;;6.00;4.32;;;;;;;;;;5093396;28;20024;-77
2022/05/04 06:11:52;;;;;;;8.75;4.25;;;;;;;;;;5095342;28;20036;-79
2022/05/04 06:14:18;;;;;;;12.75;7.03;;;;;;;;;;5089837;28;20024;-78
2022/05/04 06:16:44;;;;;;;7.90;4.28;;;;;;;;;;5070816;28;20031;-80
2022/05/04 06:19:09;;;;;;;5.75;3.60;;;;;;;;;;5071349;28;20032;-80
2022/05/04 06:21:35;;;;;;;4.45;2.83;;;;;;;;;;5073303;28;20028;-77
2022/05/04 06:24:00;;;;;;;6.47;2.55;;;;;;;;;;5088579;28;20043;-78
2022/05/04 06:26:26;;;;;;;4.05;2.42;;;;;;;;;;5085553;28;20071;-79
2022/05/04 06:28:52;;;;;;;3.45;3.03;;;;;;;;;;5056919;28;20044;-78
2022/05/04 06:34:08;;;;;;;7.53;3.20;;;;;;;;;;5088481;28;20047;-77
2022/05/04 06:36:43;;;;;;;8.80;2.95;;;;;;;;;;5092582;28;20028;-78
2022/05/04 06:39:09;;;;;;;5.00;2.80;;;;;;;;;;5072743;28;20451;-77
2022/05/04 06:41:40;;;;;;;12.73;2.97;;;;;;;;;;5091095;28;20453;-76
2022/05/04 06:44:06;;;;;;;7.38;2.47;;;;;;;;;;5052692;28;20139;-78
2022/05/04 06:46:32;;;;;;;3.92;2.70;;;;;;;;;;5068564;28;20060;-79
2022/05/04 06:48:57;;;;;;;3.90;2.85;;;;;;;;;;5081204;28;20704;-78
2022/05/04 06:51:23;;;;;;;6.40;4.30;;;;;;;;;;5059782;28;20032;-79
2022/05/04 06:53:48;;;;;;;4.15;2.22;;;;;;;;;;5045397;28;20032;-78
2022/05/04 06:56:15;;;;;;;6.82;2.47;;;;;;;;;;5082961;28;20456;-76
2022/05/04 06:58:40;;;;;;;4.28;2.42;;;;;;;;;;5061482;28;20062;-77
2022/05/04 07:01:07;;;;;;;3.83;2.60;;;;;;;;;;5045939;28;20547;-78
2022/05/04 07:03:38;;;;;;;8.23;2.50;;;;;;;;;;5062767;28;20064;-79
2022/05/04 07:06:05;;;;;;;3.70;2.45;;;;;;;;;;5068429;22;20076;-88
2022/05/04 07:08:31;;;;;;;3.15;2.50;;;;;;;;;;5033193;28;20033;-89
2022/05/04 07:10:58;;;;;;;3.85;2.60;;;;;;;;;;5010429;28;20033;-86
2022/05/04 07:13:23;;;;;;;2.50;2.17;;;;;;;;;;5040329;28;20132;-90
2022/05/04 07:15:49;;;;;;;6.68;2.70;;;;;;;;;;5040178;28;20127;-90
2022/05/04 07:18:19;;;;;;;4.15;2.35;;;;;;;;;;5042110;28;20051;-85
2022/05/04 07:20:46;;;;;;;5.38;3.65;;;;;;;;;;5081056;28;20047;-84
2022/05/04 07:23:14;;;;;;;8.13;5.47;;;;;;;;;;5041430;28;20044;-78
2022/05/04 07:25:40;;;;;;;5.45;3.33;;;;;;;;;;5037745;28;20028;-84
2022/05/04 07:28:06;;;;;;;2.75;2.42;;;;;;;;;;5033785;28;20052;-85
2022/05/04 07:30:45;;;;;;;3.63;2.75;;;;;;;;;;5033836;28;20028;-86
2022/05/04 07:35:49;;;;;;;6.30;3.30;;;;;;;;;;4888578;26;19921;-84
2022/05/04 07:38:14;;;;;;;7.93;4.32;;;;;;;;;;5047987;28;20052;-84
2022/05/04 07:43:24;;;;;;;4.82;2.88;;;;;;;;;;5039794;28;20032;-87
2022/05/04 07:45:49;;;;;;;7.82;3.13;;;;;;;;;;5054774;28;20033;-87
2022/05/04 07:48:15;;;;;;;4.28;2.92;;;;;;;;;;5058244;28;20128;-88
2022/05/04 07:50:40;;;;;;;4.03;2.60;;;;;;;;;;5043537;28;20047;-85
2022/05/04 07:53:06;;;;;;;4.68;2.72;;;;;;;;;;5064870;28;20429;-89
2022/05/04 07:55:31;;;;;;;3.70;2.47;;;;;;;;;;5037480;28;20021;-86
2022/05/04 07:57:57;;;;;;;3.75;2.92;;;;;;;;;;5050855;28;20039;-88
2022/05/04 08:05:54;;;;;;;3.63;2.88;;;;;;;;;;5047124;28;20063;-87
2022/05/04 08:08:19;;;;;;;4.60;3.25;;;;;;;;;;5032744;28;20069;-80
2022/05/04 08:10:45;;;;;;;7.22;2.97;;;;;;;;;;5050811;28;20560;-84
2022/05/04 08:13:11;;;;;;;3.08;2.20;;;;;;;;;;5028745;28;20049;-84
2022/05/04 08:15:37;;;;;;;7.95;2.75;;;;;;;;;;5038343;28;20025;-87
2022/05/04 08:18:08;;;;;;;2.67;2.20;;;;;;;;;;5046101;28;20051;-82
2022/05/04 08:20:35;;;;;;;5.95;2.55;;;;;;;;;;5047601;28;20056;-82
2022/05/04 08:23:00;;;;;;;3.47;2.50;;;;;;;;;;5018154;28;20048;-83
2022/05/04 08:25:26;;;;;;;3.38;2.20;;;;;;;;;;5047570;28;20033;-83
2022/05/04 08:27:51;;;;;;;4.93;2.40;;;;;;;;;;5052432;28;20036;-82
2022/05/04 08:30:17;;;;;;;2.58;2.38;;;;;;;;;;5050605;28;20029;-83
2022/05/04 08:32:46;;;;;;;3.08;2.10;;;;;;;;;;5056466;28;20182;-85
2022/05/04 08:35:13;;;;;;;4.32;3.90;;;;;;;;;;5017257;28;20033;-79
2022/05/04 08:37:39;;;;;;;4.40;2.38;;;;;;;;;;4994447;28;20133;-78
2022/05/04 08:40:05;;;;;;;4.30;2.60;;;;;;;;;;5029263;28;20034;-78
2022/05/04 08:42:30;;;;;;;2.58;2.38;;;;;;;;;;5027034;28;20084;-82
2022/05/04 08:44:58;;;;;;;5.18;2.63;;;;;;;;;;5022639;28;20411;-80
2022/05/04 08:47:25;;;;;;;3.92;2.28;;;;;;;;;;5011769;28;20033;-83
2022/05/04 08:49:55;;;;;;;4.63;2.90;;;;;;;;;;5028131;28;20057;-83
2022/05/04 08:52:24;;;;;;;2.65;2.35;;;;;;;;;;4999595;28;20128;-82
2022/05/04 08:54:49;;;;;;;5.18;2.63;;;;;;;;;;5033757;28;20029;-84
2022/05/04 08:57:15;;;;;;;4.50;3.08;;;;;;;;;;5030028;28;20517;-83
2022/05/04 08:59:43;;;;;;;6.28;4.15;;;;;;;;;;5035637;28;20056;-81
2022/05/04 09:02:10;;;;;;;7.80;3.13;;;;;;;;;;5029916;28;20028;-79
2022/05/04 09:04:35;;;;;;;2.90;2.55;;;;;;;;;;5034541;28;20446;-81
2022/05/04 09:07:01;;;;;;;2.58;2.30;;;;;;;;;;4995473;28;20029;-79
2022/05/04 09:09:27;;;;;;;2.72;2.47;;;;;;;;;;5026930;28;20959;-83
2022/05/04 09:11:52;;;;;;;2.40;2.20;;;;;;;;;;5024481;28;20093;-82
2022/05/04 09:14:20;;;;;;;2.80;2.15;;;;;;;;;;5029041;28;20030;-82
2022/05/04 09:16:46;;;;;;;5.47;3.88;;;;;;;;;;4996067;28;20041;-82
2022/05/04 09:19:17;;;;;;;2.95;2.65;;;;;;;;;;5012676;28;20474;-85
2022/05/04 09:21:45;;;;;;;2.10;2.00;;;;;;;;;;5008838;28;20147;-80
2022/05/04 09:24:13;;;;;;;7.18;4.85;;;;;;;;;;5009776;28;20230;-83
2022/05/04 09:26:39;;;;;;;9.63;6.97;;;;;;;;;;4997455;28;20578;-79
2022/05/04 09:29:11;;;;;;;4.72;3.03;;;;;;;;;;5013455;28;20041;-78
2022/05/04 09:31:44;;;;;;;4.13;3.10;;;;;;;;;;5027730;28;20021;-81
2022/05/04 09:34:13;;;;;;;4.55;3.72;;;;;;;;;;4998497;28;20052;-82
2022/05/04 09:44:54;;;;;;;2.47;2.10;;;;;;;;;;5025609;28;20034;-80
2022/05/04 09:45:55;;;;;;;2.27;2.07;;;;;;;;;;4991529;28;20048;-80
2022/05/04 09:48:34;;;;;;;2.17;1.92;;;;;;;;;;5025699;28;20635;-85
2022/05/04 09:51:04;;;;;;;6.40;5.25;;;;;;;;;;5029844;28;20030;-82
2022/05/04 09:53:36;;;;;;;5.15;2.42;;;;;;;;;;5016296;28;20048;-78
2022/05/04 09:56:05;;;;;;;6.53;2.75;;;;;;;;;;5035047;28;20025;-83
2022/05/04 09:58:30;;;;;;;3.65;2.60;;;;;;;;;;4995940;28;20060;-82
2022/05/04 10:01:00;;;;;;;6.05;4.40;;;;;;;;;;5012183;28;20022;-84
2022/05/04 10:03:50;;;;;;;5.10;3.72;;;;;;;;;;5003445;28;20030;-79
2022/05/04 10:06:15;;;;;;;5.50;4.10;;;;;;;;;;4996519;28;20043;-82
2022/05/04 10:08:41;;;;;;;9.98;2.58;;;;;;;;;;5011635;28;20033;-84
2022/05/04 10:11:06;;;;;;;5.45;3.80;;;;;;;;;;5015729;28;20512;-81
2022/05/04 10:13:32;;;;;;;5.20;3.63;;;;;;;;;;5004882;28;20064;-83
2022/05/04 10:15:57;;;;;;;5.55;3.58;;;;;;;;;;5015327;28;20036;-81
2022/05/04 10:18:28;;;;;;;5.57;3.38;;;;;;;;;;5009374;28;20578;-84
2022/05/04 10:21:11;;;;;;;8.77;3.22;;;;;;;;;;4994334;28;20088;-84
2022/05/04 10:23:42;;;;;;;7.45;5.13;;;;;;;;;;4998503;28;20042;-84
2022/05/04 10:26:10;;;;;;;4.47;3.90;;;;;;;;;;5012137;28;20033;-80
2022/05/04 10:28:36;;;;;;;3.03;2.67;;;;;;;;;;4996961;28;20359;-80
2022/05/04 10:31:02;;;;;;;3.80;2.50;;;;;;;;;;5014854;28;20044;-80
2022/05/04 10:33:32;;;;;;;2.50;2.30;;;;;;;;;;4998762;28;20030;-81
2022/05/04 10:36:16;;;;;;;3.85;2.70;;;;;;;;;;5045138;28;20021;-81
2022/05/04 10:38:42;;;;;;;7.80;4.47;;;;;;;;;;5055029;28;20060;-83
2022/05/04 10:41:09;;;;;;;8.13;3.78;;;;;;;;;;5030960;28;20481;-86
2022/05/04 10:43:47;;;;;;;7.07;3.92;;;;;;;;;;5036219;28;20151;-84
2022/05/04 10:46:21;;;;;;;4.55;3.13;;;;;;;;;;5066659;28;20031;-82
2022/05/04 10:48:55;;;;;;;6.78;4.40;;;;;;;;;;5055677;28;20424;-81
2022/05/04 10:51:22;;;;;;;11.25;6.35;;;;;;;;;;5054341;28;20025;-83
2022/05/04 10:53:55;;;;;;;3.85;2.97;;;;;;;;;;5037847;28;20035;-83
2022/05/04 10:56:22;;;;;;;11.88;5.22;;;;;;;;;;5053966;28;20017;-85
2022/05/04 10:58:52;;;;;;;13.52;9.73;;;;;;;;;;5022353;28;20032;-82
2022/05/04 11:01:22;;;;;;;;;;;;;;;;;;5055674;28;20453;-83
2022/05/04 11:04:10;;;;;;;9.00;5.43;;;;;;;;;;5037943;28;20326;-81
2022/05/04 11:07:06;;;;;;;3.65;2.58;;;;;;;;;;5040915;28;20045;-81
2022/05/04 11:09:42;;;;;;;3.65;3.35;;;;;;;;;;5051792;28;20299;-81
2022/05/04 11:12:08;;;;;;;5.88;4.25;;;;;;;;;;5034871;28;20570;-79
2022/05/04 11:14:34;;;;;;;21.08;14.20;;;;;;;;;;5032399;28;20391;-80
2022/05/04 11:17:00;;;;;;;4.20;3.80;;;;;;;;;;5035812;28;20025;-80
2022/05/04 11:19:27;;;;;;;18.52;11.75;;;;;;;;;;5035677;28;20166;-79
2022/05/04 11:21:56;;;;;;;3.10;2.50;;;;;;;;;;5035507;28;20131;-80
2022/05/04 11:24:21;;;;;;;12.02;8.80;;;;;;;;;;5036202;28;20029;-82
2022/05/04 11:26:49;;;;;;;7.15;2.90;;;;;;;;;;5018849;28;20366;-81
2022/05/04 11:29:19;;;;;;;6.72;2.70;;;;;;;;;;5023230;28;20111;-79
2022/05/04 11:31:46;;;;;;;6.55;4.05;;;;;;;;;;5038911;28;20029;-82
2022/05/04 11:34:18;;;;;;;10.52;6.28;;;;;;;;;;5040373;28;20140;-79
2022/05/04 11:36:45;;;;;;;5.82;3.20;;;;;;;;;;5045162;28;20076;-79
2022/05/04 11:39:11;;;;;;;7.25;5.68;;;;;;;;;;5034392;28;20037;-81
2022/05/04 11:41:36;;;;;;;6.38;4.18;;;;;;;;;;5002642;28;20044;-81
2022/05/04 11:44:02;;;;;;;3.00;2.70;;;;;;;;;;5017338;28;20029;-81
2022/05/04 11:46:27;;;;;;;10.05;3.47;;;;;;;;;;5033606;28;20108;-79
2022/05/04 11:48:55;;;;;;;9.48;3.38;;;;;;;;;;5015648;28;20125;-77
2022/05/04 11:51:22;;;;;;;3.65;2.78;;;;;;;;;;5016451;28;20040;-81
2022/05/04 11:53:47;;;;;;;3.38;3.08;;;;;;;;;;5039422;28;20307;-80
2022/05/04 11:56:13;;;;;;;2.92;2.63;;;;;;;;;;5042230;28;20051;-81
2022/05/04 11:58:42;;;;;;;3.10;2.80;;;;;;;;;;5033336;28;20035;-79
2022/05/04 12:01:07;;;;;;;3.97;3.38;;;;;;;;;;5034623;28;20029;-80
2022/05/04 12:03:35;;;;;;;3.45;2.40;;;;;;;;;;5033882;28;20052;-78
2022/05/04 12:06:02;;;;;;;4.60;2.88;;;;;;;;;;5035363;28;20456;-78
2022/05/04 12:08:27;;;;;;;3.95;2.65;;;;;;;;;;5038379;28;20036;-80
2022/05/04 12:10:53;;;;;;;3.50;2.60;;;;;;;;;;5025340;28;20021;-80
2022/05/04 12:13:24;;;;;;;2.60;2.40;;;;;;;;;;5021819;28;20032;-80
2022/05/04 12:15:50;;;;;;;3.03;2.70;;;;;;;;;;5027801;28;20076;-80
2022/05/04 12:18:16;;;;;;;3.85;3.13;;;;;;;;;;5024058;28;20095;-80
2022/05/04 12:20:48;;;;;;;4.10;3.10;;;;;;;;;;5040662;28;20025;-81
2022/05/04 12:23:14;;;;;;;3.53;3.10;;;;;;;;;;5037528;28;20072;-78
2022/05/04 12:25:40;;;;;;;3.55;2.58;;;;;;;;;;5017857;28;20033;-79
2022/05/04 12:28:06;;;;;;;3.28;2.40;;;;;;;;;;5021861;28;20033;-78
2022/05/04 12:33:34;;;;;;;4.28;3.00;;;;;;;;;;5037653;28;20453;-80
2022/05/04 12:36:07;;;;;;;4.28;3.58;;;;;;;;;;5041298;28;20034;-80
2022/05/04 12:38:36;;;;;;;7.55;5.18;;;;;;;;;;5021340;28;20101;-83
2022/05/04 12:41:06;;;;;;;6.85;5.18;;;;;;;;;;5018254;28;20033;-80
2022/05/04 12:43:36;;;;;;;8.23;6.30;;;;;;;;;;5043414;28;20093;-84
2022/05/04 12:46:02;;;;;;;4.35;3.03;;;;;;;;;;5038853;28;20053;-81
2022/05/04 12:48:27;;;;;;;13.95;9.75;;;;;;;;;;5016095;28;20083;-83
2022/05/04 12:50:57;;;;;;;8.75;5.20;;;;;;;;;;5017153;28;20120;-81
2022/05/04 12:53:26;;;;;;;5.18;4.53;;;;;;;;;;5017667;28;20032;-82
2022/05/04 12:58:36;;;;;;;13.73;10.48;;;;;;;;;;5005630;28;20040;-84
2022/05/04 13:01:02;;;;;;;15.07;9.40;;;;;;;;;;5017819;28;20025;-80
2022/05/04 13:03:28;;;;;;;36.72;22.05;;;;;;;;;;5017302;28;20051;-83
2022/05/04 13:05:53;;;;;;;18.52;11.63;;;;;;;;;;5016789;28;20025;-81
2022/05/04 13:08:19;;;;;;;28.98;19.90;;;;;;;;;;5032931;28;20029;-83
2022/05/04 13:10:47;;;;;;;5.40;4.35;;;;;;;;;;4998634;28;20025;-82
2022/05/04 13:13:13;;;;;;;32.97;20.73;;;;;;;;;;5017110;28;20131;-83
2022/05/04 13:15:38;;;;;;;11.38;8.05;;;;;;;;;;5021728;28;20025;-83
2022/05/04 13:18:04;;;;;;;9.77;6.60;;;;;;;;;;5021652;28;20038;-83
2022/05/04 13:20:29;;;;;;;7.03;4.15;;;;;;;;;;5035880;28;20402;-84
2022/05/04 13:22:56;;;;;;;7.20;4.95;;;;;;;;;;5017856;28;20075;-81
2022/05/04 13:25:22;;;;;;;9.68;6.63;;;;;;;;;;5000966;28;20025;-81
2022/05/04 13:27:49;;;;;;;12.25;8.32;;;;;;;;;;4983795;28;20132;-82
2022/05/04 13:30:16;;;;;;;17.02;9.82;;;;;;;;;;4999948;28;20041;-81
2022/05/04 13:32:41;;;;;;;18.52;13.10;;;;;;;;;;5017000;28;20481;-82
2022/05/04 13:35:07;;;;;;;8.85;5.65;;;;;;;;;;5017332;28;20128;-82
2022/05/04 13:37:32;;;;;;;11.35;5.07;;;;;;;;;;5001501;28;20033;-82
2022/05/04 13:39:58;;;;;;;20.13;9.25;;;;;;;;;;5017430;28;20042;-80
2022/05/04 13:42:23;;;;;;;11.13;5.82;;;;;;;;;;5001211;28;20041;-81
2022/05/04 13:44:49;;;;;;;27.83;16.05;;;;;;;;;;4997572;28;20560;-84
2022/05/04 13:47:15;;;;;;;23.17;8.10;;;;;;;;;;4996849;28;20395;-83
2022/05/04 13:49:40;;;;;;;10.55;5.82;;;;;;;;;;4997664;28;20030;-84
2022/05/04 13:54:49;;;;;;;32.25;13.60;;;;;;;;;;5001228;28;20127;-80
2022/05/04 13:57:16;;;;;;;10.43;7.10;;;;;;;;;;5015288;28;20030;-80
2022/05/04 13:59:41;;;;;;;20.45;8.38;;;;;;;;;;4996996;28;20026;-81
2022/05/04 14:02:07;;;;;;;11.27;7.53;;;;;;;;;;5013195;28;20117;-81
2022/05/04 14:04:33;;;;;;;11.48;7.50;;;;;;;;;;4981317;28;20451;-82
2022/05/04 14:06:58;;;;;;;22.95;11.77;;;;;;;;;;4997771;28;20029;-82
2022/05/04 14:09:24;;;;;;;5.60;4.18;;;;;;;;;;5014758;28;20482;-83
2022/05/04 14:11:49;;;;;;;16.77;11.23;;;;;;;;;;5014279;28;20025;-81
2022/05/04 14:16:59;;;;;;;8.93;5.15;;;;;;;;;;5007366;28;20028;-80
2022/05/04 14:19:24;;;;;;;5.72;4.47;;;;;;;;;;4964489;28;20038;-81
2022/05/04 14:21:51;;;;;;;6.43;5.35;;;;;;;;;;4964325;28;20033;-81
2022/05/04 14:24:17;;;;;;;8.50;3.92;;;;;;;;;;4965120;28;20022;-80
2022/05/04 14:26:42;;;;;;;13.35;9.13;;;;;;;;;;4980891;28;20029;-84
2022/05/04 14:29:08;;;;;;;9.30;6.70;;;;;;;;;;4980765;28;20049;-80
2022/05/04 14:31:33;;;;;;;15.38;6.82;;;;;;;;;;4996708;28;20176;-83
2022/05/04 14:33:59;;;;;;;29.70;20.00;;;;;;;;;;4980721;28;20038;-82
2022/05/04 14:36:26;;;;;;;9.15;6.78;;;;;;;;;;5001883;28;20022;-80
2022/05/04 14:38:51;;;;;;;14.40;7.15;;;;;;;;;;4998485;28;20128;-78
2022/05/04 14:41:17;;;;;;;5.97;3.85;;;;;;;;;;4980888;28;20127;-81
2022/05/04 14:43:42;;;;;;;13.23;8.40;;;;;;;;;;4997672;28;20076;-84
2022/05/04 14:46:08;;;;;;;21.08;12.45;;;;;;;;;;4998093;28;20022;-82
2022/05/04 14:48:33;;;;;;;9.15;4.55;;;;;;;;;;4997339;28;20022;-83
2022/05/04 14:50:59;;;;;;;5.30;2.78;;;;;;;;;;5014086;28;20473;-81
2022/05/04 14:53:24;;;;;;;8.90;5.95;;;;;;;;;;4964589;28;20029;-81
2022/05/04 14:55:51;;;;;;;2.22;2.03;;;;;;;;;;5016863;28;20030;-80
2022/05/04 14:58:17;;;;;;;4.13;2.20;;;;;;;;;;5015528;28;20037;-80
2022/05/04 15:00:42;;;;;;;2.65;2.25;;;;;;;;;;5013698;28;20018;-80
2022/05/04 15:05:52;;;;;;;5.40;2.30;;;;;;;;;;4985257;28;20054;-78
2022/05/04 15:08:17;;;;;;;2.70;2.50;;;;;;;;;;4996476;28;20030;-80
2022/05/04 15:10:43;;;;;;;6.72;2.65;;;;;;;;;;4996355;28;20444;-80
2022/05/04 15:13:08;;;;;;;3.63;2.70;;;;;;;;;;4980219;28;20030;-79
2022/05/04 15:15:34;;;;;;;3.47;2.78;;;;;;;;;;4996042;28;20037;-79
2022/05/04 15:18:00;;;;;;;3.65;2.33;;;;;;;;;;4983025;28;20040;-81
2022/05/04 15:20:28;;;;;;;3.05;2.40;;;;;;;;;;4996371;28;20025;-78
2022/05/04 15:22:54;;;;;;;4.38;3.10;;;;;;;;;;4996558;28;20026;-79